createdAt,value
2017-08-09T00:00:26.161Z,99.90
2017-08-09T00:02:54.230Z,99.90
2017-08-09T00:05:22.343Z,99.90
2017-08-09T00:07:50.414Z,99.90
2017-08-09T00:10:18.480Z,99.90
2017-08-09T00:12:46.563Z,99.90
2017-08-09T00:15:14.643Z,99.90
2017-08-09T00:17:42.724Z,99.90
2017-08-09T00:20:10.805Z,99.90
2017-08-09T00:22:38.883Z,99.90
2017-08-09T00:25:06.963Z,99.90
2017-08-09T00:27:35.037Z,99.90
2017-08-09T00:30:03.127Z,99.90
2017-08-09T00:32:31.206Z,99.90
2017-08-09T00:34:59.345Z,99.90
2017-08-09T00:37:27.434Z,99.90
2017-08-09T00:39:55.511Z,99.90
2017-08-09T00:42:23.602Z,99.90
2017-08-09T00:44:51.681Z,99.90
2017-08-09T00:47:19.754Z,99.90
2017-08-09T00:49:47.832Z,99.90
2017-08-09T00:52:15.904Z,99.90
2017-08-09T00:54:43.978Z,99.90
2017-08-09T00:57:12.048Z,99.90
2017-08-09T00:59:40.134Z,99.90
2017-08-09T01:02:08.203Z,99.90
2017-08-09T01:04:36.403Z,99.90
2017-08-09T01:07:04.497Z,99.90
2017-08-09T01:09:32.582Z,99.90
2017-08-09T01:12:00.654Z,99.90
2017-08-09T01:14:28.743Z,99.90
2017-08-09T01:16:57.038Z,99.90
2017-08-09T01:19:25.120Z,99.90
2017-08-09T01:21:53.213Z,99.90
2017-08-09T01:24:21.281Z,99.90
2017-08-09T01:26:49.366Z,99.90
2017-08-09T01:29:17.453Z,99.90
2017-08-09T01:31:45.537Z,99.90
2017-08-09T01:34:13.626Z,99.90
2017-08-09T01:36:41.775Z,99.90
2017-08-09T01:39:09.865Z,99.90
2017-08-09T01:41:38.117Z,99.90
2017-08-09T01:44:06.211Z,99.90
2017-08-09T01:46:34.292Z,99.90
2017-08-09T01:49:02.362Z,99.90
2017-08-09T01:51:30.435Z,99.90
2017-08-09T01:53:58.524Z,99.90
2017-08-09T01:56:26.604Z,99.90
2017-08-09T01:58:54.680Z,99.90
2017-08-09T02:01:22.767Z,99.90
2017-08-09T02:03:50.886Z,99.90
2017-08-09T02:06:18.962Z,99.90
2017-08-09T02:08:47.047Z,99.90
2017-08-09T02:11:15.128Z,99.90
2017-08-09T02:13:43.209Z,99.90
2017-08-09T02:16:11.287Z,99.90
2017-08-09T02:18:39.375Z,99.90
2017-08-09T02:21:07.456Z,99.90
2017-08-09T02:23:35.547Z,99.90
2017-08-09T02:26:03.623Z,99.90
2017-08-09T02:28:31.715Z,99.90
2017-08-09T02:30:59.795Z,99.90
2017-08-09T02:33:27.935Z,99.90
2017-08-09T02:35:56.167Z,99.90
2017-08-09T02:38:24.264Z,99.90
2017-08-09T02:40:52.341Z,99.90
2017-08-09T02:43:20.407Z,99.90
2017-08-09T02:45:48.487Z,99.90
2017-08-09T02:48:16.555Z,99.90
2017-08-09T02:50:44.649Z,99.90
2017-08-09T02:53:12.715Z,99.90
2017-08-09T02:55:40.795Z,99.90
2017-08-09T02:58:08.865Z,99.90
2017-08-09T03:00:36.938Z,99.90
2017-08-09T03:03:05.011Z,99.90
2017-08-09T03:05:33.086Z,99.90
2017-08-09T03:08:01.158Z,99.90
2017-08-09T03:10:29.254Z,99.90
2017-08-09T03:12:57.332Z,99.90
2017-08-09T03:15:25.411Z,99.90
2017-08-09T03:17:53.491Z,99.90
2017-08-09T03:20:21.560Z,99.90
2017-08-09T03:25:26.854Z,99.90
2017-08-09T03:27:54.939Z,99.90
2017-08-09T03:30:23.011Z,99.90
2017-08-09T03:32:51.090Z,99.90
2017-08-09T03:35:19.154Z,99.90
2017-08-09T03:37:47.235Z,99.90
2017-08-09T03:40:15.311Z,99.90
2017-08-09T03:42:43.396Z,99.90
2017-08-09T03:45:11.577Z,99.90
2017-08-09T03:47:39.639Z,99.90
2017-08-09T03:50:07.717Z,99.90
2017-08-09T03:52:35.798Z,99.90
2017-08-09T03:55:03.875Z,99.90
2017-08-09T03:57:31.960Z,99.90
2017-08-09T04:00:00.051Z,99.90
2017-08-09T04:02:28.118Z,99.90
2017-08-09T04:04:56.217Z,99.90
2017-08-09T04:07:24.282Z,99.90
2017-08-09T04:09:52.362Z,99.90
2017-08-09T04:12:20.443Z,99.90
2017-08-09T04:14:48.635Z,99.90
2017-08-09T04:17:16.695Z,99.90
2017-08-09T04:19:44.788Z,99.90
2017-08-09T04:22:12.861Z,99.90
2017-08-09T04:24:40.934Z,99.90
2017-08-09T04:27:09.018Z,99.90
2017-08-09T04:29:37.091Z,99.90
2017-08-09T04:32:05.175Z,99.90
2017-08-09T04:34:33.246Z,99.90
2017-08-09T04:37:01.330Z,99.90
2017-08-09T04:39:29.412Z,99.90
2017-08-09T04:41:57.483Z,99.90
2017-08-09T04:44:25.658Z,99.90
2017-08-09T04:46:53.747Z,99.90
2017-08-09T04:49:21.819Z,99.90
2017-08-09T04:51:49.884Z,99.90
2017-08-09T04:54:17.972Z,99.90
2017-08-09T04:56:46.042Z,99.90
2017-08-09T04:59:14.137Z,99.90
2017-08-09T05:01:42.203Z,99.90
2017-08-09T05:04:10.308Z,99.90
2017-08-09T05:06:38.388Z,99.90
2017-08-09T05:09:06.474Z,99.90
2017-08-09T05:11:34.561Z,99.90
2017-08-09T05:14:02.715Z,99.90
2017-08-09T05:16:30.790Z,99.90
2017-08-09T05:18:58.888Z,99.90
2017-08-09T05:21:26.958Z,99.90
2017-08-09T05:23:55.026Z,99.90
2017-08-09T05:26:23.103Z,99.90
2017-08-09T05:28:51.171Z,99.90
2017-08-09T05:31:19.251Z,99.90
2017-08-09T05:33:47.327Z,99.90
2017-08-09T05:36:15.455Z,99.90
2017-08-09T05:38:43.532Z,99.90
2017-08-09T05:41:11.611Z,99.90
2017-08-09T05:43:39.747Z,99.90
2017-08-09T05:46:07.828Z,99.90
2017-08-09T05:48:35.909Z,99.90
2017-08-09T05:51:03.989Z,99.90
2017-08-09T05:53:32.071Z,99.90
2017-08-09T05:56:00.152Z,99.90
2017-08-09T05:58:28.228Z,99.90
2017-08-09T06:00:56.303Z,99.90
2017-08-09T06:03:24.382Z,99.90
2017-08-09T06:05:52.454Z,99.90
2017-08-09T06:08:20.538Z,99.90
2017-08-09T06:10:48.609Z,99.90
2017-08-09T06:13:16.688Z,99.90
2017-08-09T06:15:44.754Z,99.90
2017-08-09T06:18:12.846Z,99.90
2017-08-09T06:20:40.924Z,99.90
2017-08-09T06:23:09.008Z,99.90
2017-08-09T06:25:37.083Z,99.90
2017-08-09T06:28:05.148Z,99.90
2017-08-09T06:30:33.236Z,99.90
2017-08-09T06:33:01.311Z,99.90
2017-08-09T06:35:29.391Z,99.90
2017-08-09T06:37:57.463Z,99.90
2017-08-09T06:40:25.543Z,99.90
2017-08-09T06:42:53.612Z,99.90
2017-08-09T06:45:21.688Z,99.90
2017-08-09T06:47:49.762Z,99.90
2017-08-09T06:50:17.865Z,99.90
2017-08-09T06:52:45.939Z,99.90
2017-08-09T06:55:14.030Z,99.90
2017-08-09T06:57:42.124Z,99.90
2017-08-09T07:00:10.192Z,99.90
2017-08-09T07:02:38.273Z,99.90
2017-08-09T07:05:06.340Z,99.90
2017-08-09T07:07:34.423Z,98.70
2017-08-09T07:10:02.495Z,97.90
2017-08-09T07:12:30.569Z,96.30
2017-08-09T07:14:58.634Z,94.90
2017-08-09T07:17:26.707Z,94.40
2017-08-09T07:19:54.800Z,93.90
2017-08-09T07:22:23.055Z,96.30
2017-08-09T07:24:51.138Z,96.30
2017-08-09T07:27:19.232Z,95.60
2017-08-09T07:29:47.320Z,94.20
2017-08-09T07:32:15.394Z,91.60
2017-08-09T07:34:43.473Z,89.20
2017-08-09T07:37:11.546Z,86.50
2017-08-09T07:39:39.631Z,84.50
2017-08-09T07:42:07.703Z,83.70
2017-08-09T07:44:35.783Z,83.60
2017-08-09T07:47:03.847Z,84.40
2017-08-09T07:49:31.924Z,84.60
2017-08-09T07:51:59.994Z,87.80
2017-08-09T07:54:28.101Z,90.80
2017-08-09T07:56:56.183Z,92.70
2017-08-09T07:59:24.243Z,93.40
2017-08-09T08:01:52.323Z,92.10
2017-08-09T08:04:20.401Z,86.60
2017-08-09T08:06:48.512Z,82.50
2017-08-09T08:09:16.578Z,83.30
2017-08-09T08:11:44.660Z,88.40
2017-08-09T08:14:12.744Z,90.00
2017-08-09T08:16:40.815Z,86.50
2017-08-09T08:19:08.895Z,82.30
2017-08-09T08:21:36.979Z,84.30
2017-08-09T08:24:05.063Z,78.50
2017-08-09T08:26:33.187Z,76.60
2017-08-09T08:29:01.258Z,72.80
2017-08-09T08:31:30.148Z,70.30
2017-08-09T08:33:58.251Z,67.40
2017-08-09T08:36:26.325Z,71.20
2017-08-09T08:38:54.402Z,73.40
2017-08-09T08:41:22.484Z,71.50
2017-08-09T08:46:27.787Z,70.10
2017-08-09T08:48:55.876Z,64.80
2017-08-09T08:51:23.963Z,64.20
2017-08-09T08:53:52.130Z,61.80
2017-08-09T08:56:20.214Z,60.10
2017-08-09T08:58:48.295Z,64.80
2017-08-09T09:01:16.380Z,60.60
2017-08-09T09:03:44.451Z,63.70
2017-08-09T09:06:12.527Z,65.40
2017-08-09T09:08:40.618Z,60.50
2017-08-09T09:11:08.699Z,58.10
2017-08-09T09:13:36.779Z,55.70
2017-08-09T09:16:04.850Z,54.50
2017-08-09T09:18:32.927Z,56.90
2017-08-09T09:21:01.012Z,55.80
2017-08-09T09:23:29.081Z,56.90
2017-08-09T09:25:57.194Z,66.80
2017-08-09T09:28:25.267Z,67.00
2017-08-09T09:30:53.335Z,70.60
2017-08-09T09:33:21.425Z,74.30
2017-08-09T09:35:49.505Z,76.10
2017-08-09T09:38:17.591Z,73.50
2017-08-09T09:40:45.662Z,67.40
2017-08-09T09:43:13.747Z,68.00
2017-08-09T09:45:41.807Z,70.30
2017-08-09T09:48:09.879Z,70.20
2017-08-09T09:50:37.967Z,68.90
2017-08-09T09:53:06.051Z,64.70
2017-08-09T09:55:34.120Z,61.40
2017-08-09T09:58:02.208Z,57.70
2017-08-09T10:00:30.270Z,54.70
2017-08-09T10:02:58.352Z,54.80
2017-08-09T10:05:26.419Z,54.60
2017-08-09T10:07:54.520Z,53.00
2017-08-09T10:10:22.592Z,53.60
2017-08-09T10:12:50.671Z,58.40
2017-08-09T10:15:18.768Z,61.40
2017-08-09T10:17:46.835Z,62.50
2017-08-09T10:20:14.912Z,57.70
2017-08-09T10:22:42.976Z,57.10
2017-08-09T10:25:11.058Z,52.70
2017-08-09T10:27:39.138Z,52.00
2017-08-09T10:30:07.222Z,53.50
2017-08-09T10:32:35.290Z,54.70
2017-08-09T10:35:03.391Z,56.00
2017-08-09T10:37:31.472Z,58.00
2017-08-09T10:39:59.546Z,55.50
2017-08-09T10:42:27.617Z,56.60
2017-08-09T10:44:55.692Z,54.80
2017-08-09T10:47:23.775Z,53.30
2017-08-09T10:49:51.853Z,56.60
2017-08-09T10:52:19.924Z,53.00
2017-08-09T10:54:47.999Z,54.20
2017-08-09T10:57:16.491Z,52.20
2017-08-09T10:59:44.565Z,53.30
2017-08-09T11:02:12.647Z,51.20
2017-08-09T11:04:40.716Z,50.40
2017-08-09T11:07:08.801Z,50.20
2017-08-09T11:09:36.912Z,47.90
2017-08-09T11:12:04.989Z,46.30
2017-08-09T11:14:33.060Z,49.00
2017-08-09T11:17:01.140Z,49.00
2017-08-09T11:19:29.211Z,47.30
2017-08-09T11:21:57.295Z,49.00
2017-08-09T11:24:25.375Z,46.60
2017-08-09T11:26:53.455Z,46.60
2017-08-09T11:29:21.523Z,45.50
2017-08-09T11:31:49.600Z,46.00
2017-08-09T11:34:17.699Z,51.40
2017-08-09T11:36:45.767Z,51.20
2017-08-09T11:39:13.883Z,50.80
2017-08-09T11:41:41.951Z,48.60
2017-08-09T11:44:10.032Z,48.60
2017-08-09T11:46:38.098Z,49.40
2017-08-09T11:49:06.178Z,51.50
2017-08-09T11:51:34.250Z,52.00
2017-08-09T11:54:02.319Z,48.70
2017-08-09T11:56:30.390Z,45.40
2017-08-09T11:58:58.462Z,44.10
2017-08-09T12:01:26.532Z,43.00
2017-08-09T12:04:00.292Z,43.00
2017-08-09T12:06:43.287Z,44.20
2017-08-09T12:09:31.049Z,46.90
2017-08-09T12:11:59.124Z,48.30
2017-08-09T12:14:27.204Z,48.20
2017-08-09T12:16:55.276Z,46.10
2017-08-09T12:19:23.359Z,47.10
2017-08-09T12:21:51.437Z,46.50
2017-08-09T12:24:19.499Z,49.20
2017-08-09T12:26:47.583Z,50.00
2017-08-09T12:29:15.655Z,47.60
2017-08-09T12:31:43.756Z,46.90
2017-08-09T12:34:11.827Z,48.10
2017-08-09T12:36:39.907Z,50.20
2017-08-09T12:39:07.978Z,52.40
2017-08-09T12:41:36.057Z,50.80
2017-08-09T12:44:04.128Z,49.20
2017-08-09T12:46:32.208Z,48.70
2017-08-09T12:49:00.274Z,49.40
2017-08-09T12:51:28.359Z,47.70
2017-08-09T12:53:56.434Z,47.00
2017-08-09T12:56:24.505Z,48.60
2017-08-09T12:58:52.585Z,48.90
2017-08-09T13:01:20.667Z,49.80
2017-08-09T13:03:48.738Z,50.20
2017-08-09T13:06:16.819Z,48.90
2017-08-09T13:08:44.898Z,51.10
2017-08-09T13:11:12.990Z,50.60
2017-08-09T13:13:41.064Z,51.60
2017-08-09T13:16:09.138Z,51.10
2017-08-09T13:18:37.212Z,51.70
2017-08-09T13:21:05.282Z,50.60
2017-08-09T13:23:33.362Z,51.60
2017-08-09T13:26:01.423Z,52.50
2017-08-09T13:28:29.495Z,52.60
2017-08-09T13:30:57.571Z,53.40
2017-08-09T13:33:25.645Z,53.30
2017-08-09T13:35:53.722Z,52.50
2017-08-09T13:38:21.796Z,52.00
2017-08-09T13:40:49.887Z,52.00
2017-08-09T13:43:17.958Z,51.50
2017-08-09T13:45:46.038Z,49.90
2017-08-09T13:48:14.111Z,50.50
2017-08-09T13:50:42.186Z,49.00
2017-08-09T13:53:10.260Z,51.10
2017-08-09T13:55:38.338Z,50.80
2017-08-09T13:58:06.411Z,51.30
2017-08-09T14:00:34.494Z,52.10
2017-08-09T14:03:02.581Z,51.60
2017-08-09T14:05:30.658Z,52.20
2017-08-09T14:07:58.739Z,53.40
2017-08-09T14:10:26.811Z,52.10
2017-08-09T14:12:54.891Z,53.20
2017-08-09T14:15:22.977Z,54.00
2017-08-09T14:17:51.085Z,54.30
2017-08-09T14:20:19.134Z,53.80
2017-08-09T14:22:47.210Z,53.70
2017-08-09T14:25:15.289Z,53.30
2017-08-09T14:27:43.370Z,54.30
2017-08-09T14:30:11.448Z,54.10
2017-08-09T14:32:39.518Z,53.30
2017-08-09T14:35:07.600Z,54.30
2017-08-09T14:37:35.678Z,52.40
2017-08-09T14:40:03.753Z,52.00
2017-08-09T14:42:31.828Z,52.90
2017-08-09T14:44:59.908Z,52.50
2017-08-09T14:47:27.974Z,53.20
2017-08-09T14:49:56.056Z,52.50
2017-08-09T14:52:24.132Z,53.50
2017-08-09T14:54:52.288Z,53.80
2017-08-09T14:57:20.363Z,52.90
2017-08-09T14:59:48.451Z,54.70
2017-08-09T15:02:16.530Z,55.10
2017-08-09T15:04:44.606Z,54.60
2017-08-09T15:07:12.689Z,54.60
2017-08-09T15:09:40.760Z,55.40
2017-08-09T15:12:08.851Z,55.60
2017-08-09T15:14:36.927Z,55.90
2017-08-09T15:17:05.002Z,55.70
2017-08-09T15:19:33.079Z,55.80
2017-08-09T15:22:01.159Z,55.70
2017-08-09T15:24:29.235Z,56.60
2017-08-09T15:26:57.316Z,56.60
2017-08-09T15:29:25.391Z,56.50
2017-08-09T15:31:53.482Z,57.00
2017-08-09T15:34:21.547Z,57.10
2017-08-09T15:36:49.629Z,57.00
2017-08-09T15:39:17.698Z,58.30
2017-08-09T15:41:45.779Z,58.00
2017-08-09T15:44:13.860Z,57.80
2017-08-09T15:46:42.835Z,57.70
2017-08-09T15:49:10.911Z,57.70
2017-08-09T15:51:38.998Z,58.30
2017-08-09T15:54:07.252Z,59.10
2017-08-09T15:56:35.540Z,59.80
2017-08-09T15:59:03.604Z,59.30
2017-08-09T16:01:31.671Z,59.10
2017-08-09T16:03:59.756Z,60.00
2017-08-09T16:06:27.829Z,60.70
2017-08-09T16:08:55.899Z,60.10
2017-08-09T16:11:23.977Z,59.60
2017-08-09T16:13:52.042Z,60.30
2017-08-09T16:16:20.130Z,60.70
2017-08-09T16:18:48.200Z,61.20
2017-08-09T16:21:16.296Z,61.20
2017-08-09T16:23:44.440Z,60.30
2017-08-09T16:26:12.523Z,60.30
2017-08-09T16:28:40.597Z,60.00
2017-08-09T16:31:08.686Z,60.90
2017-08-09T16:33:36.755Z,59.80
2017-08-09T16:36:04.849Z,59.50
2017-08-09T16:38:32.923Z,60.50
2017-08-09T16:41:01.008Z,60.50
2017-08-09T16:43:29.075Z,61.50
2017-08-09T16:45:57.156Z,62.60
2017-08-09T16:48:25.247Z,63.60
2017-08-09T16:50:53.324Z,62.90
2017-08-09T16:53:21.419Z,62.70
2017-08-09T16:55:49.484Z,63.20
2017-08-09T16:58:17.571Z,63.40
2017-08-09T17:00:45.647Z,63.40
2017-08-09T17:03:13.734Z,62.60
2017-08-09T17:05:41.802Z,62.30
2017-08-09T17:08:09.886Z,60.80
2017-08-09T17:10:37.962Z,61.60
2017-08-09T17:13:06.046Z,60.60
2017-08-09T17:15:34.116Z,61.40
2017-08-09T17:18:02.190Z,61.20
2017-08-09T17:20:30.270Z,60.80
2017-08-09T17:22:58.356Z,61.00
2017-08-09T17:25:26.427Z,61.30
2017-08-09T17:27:54.499Z,61.30
2017-08-09T17:30:22.587Z,62.30
2017-08-09T17:32:50.656Z,63.10
2017-08-09T17:35:18.749Z,63.80
2017-08-09T17:37:46.811Z,63.70
2017-08-09T17:40:14.906Z,63.70
2017-08-09T17:42:42.981Z,64.60
2017-08-09T17:45:11.162Z,64.30
2017-08-09T17:47:39.232Z,64.00
2017-08-09T17:50:07.310Z,64.30
2017-08-09T17:52:35.394Z,64.60
2017-08-09T17:55:03.480Z,64.90
2017-08-09T17:57:31.554Z,65.50
2017-08-09T17:59:59.635Z,66.00
2017-08-09T18:02:27.716Z,66.10
2017-08-09T18:04:55.796Z,66.10
2017-08-09T18:07:23.867Z,65.50
2017-08-09T18:09:51.944Z,66.00
2017-08-09T18:12:20.024Z,66.40
2017-08-09T18:14:48.191Z,67.30
2017-08-09T18:17:16.856Z,66.60
2017-08-09T18:19:55.742Z,66.30
2017-08-09T18:22:23.816Z,66.80
2017-08-09T18:24:51.892Z,66.10
2017-08-09T18:27:19.960Z,65.90
2017-08-09T18:29:48.034Z,66.90
2017-08-09T18:32:16.112Z,66.30
2017-08-09T18:34:44.187Z,66.50
2017-08-09T18:37:12.271Z,66.20
2017-08-09T18:39:40.356Z,65.70
2017-08-09T18:42:08.418Z,65.90
2017-08-09T18:44:36.495Z,65.80
2017-08-09T18:47:04.568Z,66.10
2017-08-09T18:49:32.672Z,65.70
2017-08-09T18:52:00.779Z,65.70
2017-08-09T18:54:28.859Z,66.10
2017-08-09T18:56:56.930Z,66.40
2017-08-09T18:59:25.018Z,67.30
2017-08-09T19:01:53.103Z,66.50
2017-08-09T19:04:21.180Z,66.50
2017-08-09T19:06:49.279Z,66.70
2017-08-09T19:09:17.350Z,66.80
2017-08-09T19:11:45.448Z,67.50
2017-08-09T19:14:13.515Z,66.90
2017-08-09T19:16:41.598Z,67.00
2017-08-09T19:19:09.687Z,67.60
2017-08-09T19:21:37.787Z,67.30
2017-08-09T19:24:05.868Z,67.70
2017-08-09T19:26:33.944Z,68.20
2017-08-09T19:29:02.043Z,67.60
2017-08-09T19:31:30.140Z,68.00
2017-08-09T19:33:58.242Z,68.20
2017-08-09T19:36:26.332Z,68.00
2017-08-09T19:38:54.412Z,68.40
2017-08-09T19:41:22.493Z,68.40
2017-08-09T19:43:50.579Z,68.30
2017-08-09T19:46:18.670Z,68.00
2017-08-09T19:48:46.760Z,67.50
2017-08-09T19:51:14.840Z,68.70
2017-08-09T19:53:42.916Z,68.40
2017-08-09T19:56:11.003Z,69.10
2017-08-09T19:58:39.085Z,69.60
2017-08-09T20:01:07.169Z,69.30
2017-08-09T20:03:35.244Z,69.20
2017-08-09T20:06:03.322Z,69.50
2017-08-09T20:08:31.400Z,69.80
2017-08-09T20:10:59.468Z,69.70
2017-08-09T20:13:27.554Z,71.00
2017-08-09T20:15:55.647Z,70.10
2017-08-09T20:18:23.728Z,69.20
2017-08-09T20:20:51.824Z,69.00
2017-08-09T20:23:19.924Z,69.60
2017-08-09T20:25:48.021Z,69.60
2017-08-09T20:28:16.107Z,68.50
2017-08-09T20:30:44.198Z,69.70
2017-08-09T20:33:12.287Z,69.50
2017-08-09T20:35:40.368Z,70.80
2017-08-09T20:38:08.449Z,75.00
2017-08-09T20:40:36.529Z,76.50
2017-08-09T20:43:04.644Z,78.60
2017-08-09T20:45:32.768Z,82.70
2017-08-09T20:48:00.850Z,84.10
2017-08-09T20:50:28.939Z,80.00
2017-08-09T20:52:57.015Z,77.90
2017-08-09T20:55:25.088Z,79.50
2017-08-09T20:57:54.150Z,76.50
2017-08-09T21:00:22.228Z,78.60
2017-08-09T21:02:50.294Z,78.40
2017-08-09T21:05:18.654Z,79.20
2017-08-09T21:07:47.184Z,79.20
2017-08-09T21:10:15.599Z,80.70
2017-08-09T21:12:43.994Z,83.00
2017-08-09T21:15:12.571Z,84.80
2017-08-09T21:17:40.947Z,84.90
2017-08-09T21:20:09.356Z,85.50
2017-08-09T21:22:37.480Z,85.10
2017-08-09T21:25:05.566Z,85.30
2017-08-09T21:27:33.635Z,85.20
2017-08-09T21:30:01.714Z,85.00
2017-08-09T21:32:29.790Z,84.90
2017-08-09T21:34:57.864Z,85.60
2017-08-09T21:37:25.950Z,86.90
2017-08-09T21:39:54.031Z,87.90
2017-08-09T21:42:22.127Z,89.00
2017-08-09T21:44:50.207Z,90.20
2017-08-09T21:47:18.282Z,90.60
2017-08-09T21:49:46.358Z,90.70
2017-08-09T21:52:14.475Z,91.50
2017-08-09T21:54:42.519Z,91.10
2017-08-09T21:57:10.586Z,91.30
2017-08-09T21:59:38.680Z,91.30
2017-08-09T22:02:06.763Z,91.50
2017-08-09T22:04:34.843Z,91.50
2017-08-09T22:07:02.923Z,91.50
2017-08-09T22:09:31.003Z,91.40
2017-08-09T22:11:59.075Z,91.20
2017-08-09T22:14:27.190Z,90.90
2017-08-09T22:16:55.257Z,90.60
2017-08-09T22:19:23.342Z,90.60
2017-08-09T22:21:51.419Z,90.50
2017-08-09T22:24:19.492Z,90.60
2017-08-09T22:26:47.572Z,90.50
2017-08-09T22:29:15.641Z,90.70
2017-08-09T22:31:43.727Z,90.90
2017-08-09T22:34:11.795Z,91.20
2017-08-09T22:36:39.875Z,91.70
2017-08-09T22:39:07.942Z,91.90
2017-08-09T22:41:36.022Z,92.50
2017-08-09T22:44:04.092Z,92.80
2017-08-09T22:46:32.169Z,93.30
2017-08-09T22:49:00.239Z,93.90
2017-08-09T22:51:28.320Z,94.40
2017-08-09T22:53:56.415Z,94.60
2017-08-09T22:56:24.487Z,94.70
2017-08-09T22:58:52.588Z,95.00
2017-08-09T23:01:20.677Z,95.00
2017-08-09T23:03:49.523Z,94.50
2017-08-09T23:06:17.609Z,94.50
2017-08-09T23:08:45.696Z,94.30
2017-08-09T23:11:13.790Z,94.10
2017-08-09T23:13:41.892Z,94.20
2017-08-09T23:16:10.002Z,94.10
2017-08-09T23:18:38.082Z,94.60
2017-08-09T23:21:06.152Z,94.40
2017-08-09T23:23:34.248Z,93.90
2017-08-09T23:26:02.347Z,93.70
2017-08-09T23:28:30.431Z,93.80
2017-08-09T23:30:58.507Z,94.10
2017-08-09T23:33:26.586Z,94.20
2017-08-09T23:35:54.663Z,94.50
2017-08-09T23:38:22.763Z,94.70
2017-08-09T23:40:50.838Z,95.00
2017-08-09T23:43:18.912Z,95.30
2017-08-09T23:45:46.990Z,95.50
2017-08-09T23:48:15.059Z,96.00
2017-08-09T23:50:43.141Z,96.30
2017-08-09T23:53:11.202Z,96.40
2017-08-09T23:55:39.282Z,96.90
2017-08-09T23:58:07.362Z,97.80
